METAR Data
IDs: Format: Raw Decoded Include TAF

Data at: 1419 UTC 20 Oct 2021

KBEH 201353Z AUTO 20006KT 10SM CLR 13/09 A3008 RMK AO2 SLP187 T01330089
KBEH 201253Z AUTO 18005KT 10SM BKN110 12/08 A3008 RMK AO2 SLP188 T01170078
KBEH 201153Z AUTO 00000KT 10SM BKN100 09/07 A3009 RMK AO2 SLP190 T00940072 10122 20089 58002
KBEH 201053Z AUTO 16003KT 10SM CLR 09/07 A3010 RMK AO2 SLP193 T00940067
KBEH 200953Z AUTO 16003KT 10SM CLR 10/07 A3010 RMK AO2 SLP192 T01000067
KBEH 200853Z AUTO 17004KT 10SM CLR 11/07 A3010 RMK AO2 SLP191 T01110072 53002
KBEH 200753Z AUTO 21004KT 10SM CLR 12/07 A3009 RMK AO2 SLP188 T01170067
KBEH 200653Z AUTO 19004KT 10SM CLR 12/07 A3009 RMK AO2 SLP188 T01170067
KBEH 200553Z AUTO 20004KT 10SM CLR 12/07 A3009 RMK AO2 SLP189 T01220067 10167 20117 51000
KBEH 200453Z AUTO 20005KT 10SM CLR 13/07 A3009 RMK AO2 SLP188 T01280067 402220072
KBEH 200353Z AUTO 18003KT 10SM CLR 12/07 A3009 RMK AO2 SLP189 T01220067
KBEH 200253Z AUTO 15004KT 10SM CLR 12/07 A3009 RMK AO2 SLP189 T01220067 50005
KBEH 200153Z AUTO 18003KT 10SM CLR 14/07 A3009 RMK AO2 SLP190 T01440067
KBEH 200053Z AUTO 19004KT 10SM CLR 16/06 A3009 RMK AO2 SLP188 T01560061
KBEH 192353Z AUTO 20004KT 10SM CLR 17/07 A3007 RMK AO2 SLP185 T01670067 10222 20167 53001
KBEH 192253Z AUTO 21004KT 10SM CLR 18/07 A3007 RMK AO2 SLP182 T01830072
KBEH 192153Z AUTO 24006KT 10SM CLR 20/11 A3006 RMK AO2 SLP180 T02000111
KBEH 192053Z AUTO 26007KT 10SM CLR 20/10 A3007 RMK AO2 SLP182 T02000100 56011
KBEH 191953Z AUTO 28009KT 10SM CLR 20/09 A3008 RMK AO2 SLP184 T02000094
KBEH 191853Z AUTO 25009KT 10SM CLR 22/08 A3009 RMK AO2 SLP189 T02170078
KBEH 191753Z AUTO 28005KT 10SM CLR 21/11 A3010 RMK AO2 SLP194 T02110106 10211 20083 58010
KBEH 191653Z AUTO 26007KT 10SM CLR 20/11 A3012 RMK AO2 SLP200 T02000106
KBEH 191553Z AUTO 24008KT 10SM CLR 19/11 A3013 RMK AO2 SLP203 T01890111
KBEH 191453Z AUTO 23007KT 10SM CLR 17/12 A3013 RMK AO2 SLP204 T01720117 53007
KBEH 191353Z AUTO 19004KT 10SM CLR 14/09 A3013 RMK AO2 SLP202 T01390094
KBEH 191253Z AUTO 20004KT 10SM CLR 11/08 A3012 RMK AO2 SLP199 T01110078
KBEH 191153Z AUTO 14003KT 10SM CLR 08/06 A3011 RMK AO2 SLP199 T00830061 10094 20078 50005
KBEH 191053Z AUTO 00000KT 10SM CLR 08/06 A3011 RMK AO2 SLP199 T00830061
KBEH 190953Z AUTO 00000KT 10SM CLR 08/06 A3011 RMK AO2 SLP195 T00830061
KBEH 190853Z AUTO 00000KT 10SM CLR 09/06 A3010 RMK AO2 SLP192 T00890061 53002
KBEH 190753Z AUTO 16003KT 10SM CLR 08/06 A3010 RMK AO2 SLP191 T00830061
KBEH 190653Z AUTO 00000KT 10SM CLR 08/07 A3009 RMK AO2 SLP190 T00830067
KBEH 190553Z AUTO 00000KT 10SM CLR 08/07 A3009 RMK AO2 SLP190 T00830067 10117 20072 58001
KBEH 190453Z AUTO 00000KT 10SM CLR 08/06 A3009 RMK AO2 SLP191 T00780061 401940050
KBEH 190353Z AUTO 00000KT 10SM CLR 08/07 A3009 RMK AO2 SLP191 T00830067
KBEH 190253Z AUTO 00000KT 10SM CLR 09/07 A3010 RMK AO2 SLP191 T00940072 51003